X  Schließen METAR Luftfahrt Wetterdaten     LOWS Salzburg Airport
Temperatur
14°C Temperatur
11°C Taupunkt
82% Feuchtigkeit



Wind
3 m/s
6 MPS
10 km/h
5 KTS



200°
SSW
Aktuelle Wetterlage

Teilweise bewölkt Teilweise bewölkt
Luftdruck 1021 (hPa) - 30.15 (inHg)
Sichtweite 6 (Meile) - 9.7 (km)
Flughafen
Flughafen Code LOWS

Position : Salzburg Airport
Entfernung: 67 (km)

Metar:
LOWS 281650Z 20005KT 9999 FEW018 BKN046 14/11 Q1021 NOSIG

Zeit: 2024-05-28 18:50 CEST